Alvord, IA

3:54 PM CDT on July 29, 2014 (GMT -0500)
RV south east (KIAROCKV3) Elev 1309 ft | 43.20 °N, 96.29 °W | Change Station

Current weather conditions updated 10 minutes ago

Clear
Clear
73.9 °F
Feels Like 77 °F
N
2.7
Wind Variable Wind from NW

Today is forecast to be Cooler than yesterday.

Today
High -- | Low -- °F
--% Chance of Precip.
Yesterday
High -- | Low -- °F
Precip. -- in
6:12 AM 8:50 PM
Waxing Crescent, 8% visible
Pressure 30.18 in
Visibility 10.0 miles
Clouds Clear
Heat Index 77 °F
Dew Point 54 °F
Humidity 49%
Rainfall 0.00 in
Snow Depth Not available.
UV 8 out of 12
Pollen 5.90 out of 12
Air Quality Not available.
Flu Activity Not available.
METAR KLYV 292035Z AUTO 27007KT 10SM CLR 24/10 A3018 RMK AO2

More Conditions Fewer Conditions

Pressure 30.18 in
Visibility 10.0 miles
Clouds Clear
Heat Index 77 °F
Dew Point 54 °F
Humidity 49%
Rainfall 0.00 in
Snow Depth Not available.
UV 8 out of 12
Pollen 5.90 out of 12
Air Quality Not available.
Flu Activity Not available.
METAR KLYV 292035Z AUTO 27007KT 10SM CLR 24/10 A3018 RMK AO2

More Conditions Fewer Conditions

10-Day Weather Forecast

Almanac

Astronomy

Jul. 29, 2014 Rise Set
Actual Time 6:12 AM CDT 8:50 PM CDT
Civil Twilight 5:39 AM CDT 9:23 PM CDT
Nautical Twilight 4:58 AM CDT 10:04 PM CDT
Astronomical Twilight 4:11 AM CDT 10:50 PM CDT
Moon 8:55 AM CDT 9:56 PM CDT
Length of Visible Light 15h 43m
Length of Day
14h 38m
Tomorrow will be 2m 10s shorter.
Waxing Crescent, 8% of the Moon is Illuminated
Today
Waxing Crescent
Aug 3
First Quarter
Aug 10
Full
Aug 17
Last Quarter
Aug 25
New

Today's Extremes

State Highs State Lows

Community

WunderPhotos

Upload Photos

1,738,859 photos uploaded!

Nearby

Snow Depth

Station Depth Elevation
No new snow has been reported.

Earthquake Activity

City Distance Mag. Time & Date
No recent earthquake activity has been reported nearby.
Minimum magnitude displayed is 2.5.

Coastal Water Temperatures

Place Temperature
No Stations Reporting

Nearby Weather Stations

Station Location Temp. Heat Index Dew Point Humidity Wind Precip. Elev Updated Type
RV south east, Rock Valley, IA 73.9 °F 77 °F 54 °F 49% NW  at  2.7 mph - / hr 1309 ft 3:44 PM CDT Normal
Campingfarmer, Rock Valley, IA 82.8 °F 82 °F 55 °F 38% West  at  3.8 mph 0.00 in / hr 1253 ft 3:45 PM CDT Normal
Sioux Center IA, Sioux Center, IA 74.6 °F 77 °F 55 °F 50% ENE  at  4.0 mph 0.00 in / hr 1470 ft 3:50 PM CDT Normal
Sioux Center, Sioux Center, IA 74.4 °F 77 °F 54 °F 50% NE  at  1.0 mph 0.00 in / hr 1411 ft 3:41 PM CDT Normal
Wilson Street, Sheldon, IA 75.5 °F 78 °F 62 °F 62% SW  at  2.0 mph 0.00 in / hr 1447 ft 3:54 PM CDT Rapid Fire

Show More Stations Show Fewer Stations